Weather at João Paulo II Airport

Public forecast

Using degrees Celsius for public forecast. Weather courtesy of forecast.io.

Current aviation weather report (METAR) for João Paulo II Airport

Report is more than 6 hours old.

2022/11/14 15:30 (retrieved 2 years ago)

LPPD 141530Z 26018KT 4500 BR BKN002 BKN005 19/19 Q1016

Aviation forecast (TAF) for João Paulo II Airport

Forecast is more than 12 hours old.

2023/02/22 18:18 (retrieved 1 year ago)

TAF LPPD 221700Z 2218/2318 10005KT 9999 SCT015 SCT030 PROB30 TEMPO 2218/2312 5000 -RADZ BR SCT006 BKN012 BECMG 2219/2221 12012KT